Terminal Aerodrome Forecast
Issued by NWS

Home | Current Version | Previous Version | Text Only | Print | Product List | Glossary On
Versions: 1 2 3 4 5 6 7 8 9 10 11 12 13 14
000
FTUS41 KBTV 291135
TAFPBG
TAF
KPBG 291135Z 2912/3012 33005KT P6SM OVC100
     FM291500 02007KT P6SM FEW150 SCT250
     FM300000 VRB03KT P6SM SCT250=

USA.gov is the U.S. government's official web portal to all federal, state and local government web resources and services.